Date,TemperatureHighF,TemperatureAvgF,TemperatureLowF,DewpointHighF,DewpointAvgF,DewpointLowF,HumidityHigh,HumidityAvg,HumidityLow,PressureMaxIn,PressureMinIn,WindSpeedMaxMPH,WindSpeedAvgMPH,GustSpeedMaxMPH,PrecipitationSumIn
2013-2-1,20,7,-4,12,-6,-15,73,55,37,30.34,30.04,8,2,15,0.00
2013-2-2,44,20,14,30,9,2,84,64,52,30.07,29.78,10,2,18,0.00
2013-2-3,29,21,16,18,11,6,84,64,47,30.06,29.88,11,2,20,0.00
2013-2-4,29,24,15,20,13,5,80,64,50,29.93,29.73,11,2,17,0.00
2013-2-5,40,29,15,28,20,-4,84,68,56,30.35,29.76,9,2,17,0.00
2013-2-6,48,35,20,33,24,13,84,65,48,30.13,29.95,5,1,11,0.02
2013-2-7,38,36,32,33,30,24,84,79,63,30.02,29.81,10,2,17,0.58
2013-2-8,32,28,26,27,19,14,83,68,59,30.31,30.02,11,3,17,0.00
2013-2-9,40,30,26,28,22,15,84,71,56,30.31,29.93,7,2,12,0.00
2013-2-10,50,41,32,45,33,24,84,74,47,29.94,29.33,13,3,32,0.37
2013-2-11,37,32,28,27,19,14,67,57,53,30.05,29.49,15,5,30,0.00
2013-2-12,41,31,25,25,18,11,77,60,43,30.08,29.83,7,2,15,0.00
2013-2-13,48,37,25,34,26,17,84,64,46,29.84,29.64,5,1,11,0.00
2013-2-14,43,37,30,30,25,19,83,62,42,29.99,29.61,11,3,24,0.00
2013-2-15,34,25,18,24,8,-2,79,50,22,30.19,29.99,10,4,20,0.00
2013-2-16,27,19,12,11,5,-1,72,56,40,30.19,30.09,10,2,15,0.00
2013-2-17,40,27,14,20,10,2,71,51,33,30.12,29.79,8,2,16,0.00
2013-2-18,58,37,17,42,25,7,84,62,37,29.79,29.45,11,2,27,0.18
2013-2-19,23,14,7,10,1,-6,73,56,45,30.23,29.72,11,4,21,0.00
2013-2-20,26,14,3,12,2,-9,68,57,41,30.36,30.23,7,2,13,0.00
2013-2-21,28,22,14,24,13,3,84,70,57,30.30,29.83,10,3,24,0.00
2013-2-22,34,27,24,30,20,14,84,74,62,29.90,29.71,7,2,13,0.00
2013-2-23,36,26,19,22,15,11,80,63,46,29.92,29.87,6,2,12,0.06
2013-2-24,43,27,14,26,16,5,84,64,36,30.05,29.92,4,0,7,0.00
2013-2-25,44,33,22,32,22,14,84,66,45,30.06,29.84,7,2,14,0.00
2013-2-26,35,32,30,28,24,20,84,71,54,29.83,29.50,11,6,22,0.00
2013-2-27,33,31,29,29,25,21,84,77,69,29.77,29.58,11,4,17,0.09
2013-2-28,36,33,30,29,25,20,84,73,59,30.04,29.77,8,3,15,0.00